Time;durP1;ratioP1;P1;durP2;ratioP2;P2;SDS_P1;SDS_P2;PMS_P1;PMS_P2;Temp;Humidity;BMP_temperature;BMP_pressure;BME280_temperature;BME280_humidity;BME280_pressure;Samples;Min_cycle;Max_cycle;Signal;HPM_P1;HPM_P2
2024/02/11 00:00:05;;;;;;;92.60;38.20;;;;;;;7.25;100.00;98372.27;213457;1288;140209;-89
2024/02/11 00:05:09;;;;;;;143.90;58.10;;;;;;;7.22;100.00;98373.55;213930;1286;138803;-89
2024/02/11 00:10:10;;;;;;;85.50;35.80;;;;;;;7.19;100.00;98377.94;213191;1290;140031;-88
2024/02/11 00:15:10;;;;;;;92.60;40.50;;;;;;;7.17;100.00;98369.92;213826;1289;139067;-88
2024/02/11 00:20:13;;;;;;;83.20;36.20;;;;;;;7.15;100.00;98358.84;213244;1286;139419;-86
2024/02/11 00:25:14;;;;;;;83.20;37.20;;;;;;;7.15;100.00;98356.42;213614;1287;138565;-88
2024/02/11 00:30:16;;;;;;;90.20;35.50;;;;;;;7.16;100.00;98356.16;213155;1287;140141;-88
2024/02/11 00:35:18;;;;;;;108.00;46.70;;;;;;;7.17;100.00;98351.31;213774;1290;138459;-87
2024/02/11 00:40:19;;;;;;;81.10;34.50;;;;;;;7.17;100.00;98348.89;213107;1287;140189;-86
2024/02/11 00:45:19;;;;;;;79.70;33.30;;;;;;;7.17;100.00;98347.17;213722;1289;138551;-87
2024/02/11 00:50:20;;;;;;;86.10;34.40;;;;;;;7.16;100.00;98342.80;213145;1288;140427;-87
2024/02/11 00:55:21;;;;;;;89.50;39.20;;;;;;;7.16;100.00;98340.14;213592;1291;138657;-88
2024/02/11 01:00:22;;;;;;;82.70;37.70;;;;;;;7.16;100.00;98339.84;213352;1289;139585;-86
2024/02/11 01:05:22;;;;;;;88.60;40.60;;;;;;;7.15;100.00;98341.23;213712;1285;138274;-88
2024/02/11 01:10:25;;;;;;;98.00;38.70;;;;;;;7.15;100.00;98342.90;213203;1289;140302;-87
2024/02/11 01:15:26;;;;;;;84.60;37.70;;;;;;;7.15;100.00;98344.15;213491;1287;138558;-89
2024/02/11 01:20:27;;;;;;;85.00;34.90;;;;;;;7.14;100.00;98337.66;213410;1286;139664;-89
2024/02/11 01:25:27;;;;;;;92.10;39.30;;;;;;;7.14;100.00;98334.77;213559;1290;138831;-88
2024/02/11 01:30:27;;;;;;;94.20;39.10;;;;;;;7.14;100.00;98338.77;213323;1300;140112;-88
2024/02/11 01:35:28;;;;;;;88.90;37.60;;;;;;;7.14;100.00;98336.34;214282;1285;138431;-88
2024/02/11 01:40:29;;;;;;;88.20;37.00;;;;;;;7.13;100.00;98332.13;213617;1289;140124;-88
2024/02/11 01:45:29;;;;;;;80.80;35.30;;;;;;;7.11;100.00;98326.67;213810;1289;138773;-85
2024/02/11 01:50:33;;;;;;;81.60;34.20;;;;;;;7.10;100.00;98323.55;213150;1288;140033;-85
2024/02/11 01:55:35;;;;;;;81.90;32.70;;;;;;;7.09;100.00;98313.25;213946;1290;138510;-87
2024/02/11 02:00:37;;;;;;;78.90;36.60;;;;;;;7.08;100.00;98313.42;213310;1288;140952;-87
2024/02/11 02:05:38;;;;;;;85.80;33.80;;;;;;;7.06;100.00;98314.45;213725;1289;96695;-88
2024/02/11 02:10:39;;;;;;;88.40;37.50;;;;;;;7.03;100.00;98311.13;213130;1290;139907;-86
2024/02/11 02:15:39;;;;;;;84.90;36.40;;;;;;;7.03;100.00;98310.66;213558;1290;140212;-87
2024/02/11 02:20:39;;;;;;;91.40;38.30;;;;;;;7.04;100.00;98308.30;212979;1290;139265;-86
2024/02/11 02:25:40;;;;;;;83.60;35.50;;;;;;;7.03;100.00;98309.64;213607;1286;138525;-87
2024/02/11 02:30:40;;;;;;;95.90;34.60;;;;;;;7.02;100.00;98307.22;213233;1289;139516;-88
2024/02/11 02:35:41;;;;;;;94.80;36.20;;;;;;;7.01;100.00;98304.11;213797;1286;96601;-87
2024/02/11 02:40:41;;;;;;;90.30;36.10;;;;;;;7.00;100.00;98299.11;213840;1289;139351;-88
2024/02/11 02:45:42;;;;;;;86.60;35.40;;;;;;;7.00;100.00;98292.16;213752;1289;138770;-86
2024/02/11 02:50:43;;;;;;;88.80;35.20;;;;;;;7.00;100.00;98287.79;213299;1289;140286;-86
2024/02/11 02:55:44;;;;;;;88.40;38.30;;;;;;;7.00;100.00;98280.37;213744;1289;139119;-88
2024/02/11 03:00:45;;;;;;;96.80;37.90;;;;;;;7.00;100.00;98273.80;213293;1291;139946;-88
2024/02/11 03:05:47;;;;;;;87.70;34.90;;;;;;;7.00;100.00;98274.27;213912;1291;97066;-87
2024/02/11 03:10:47;;;;;;;86.90;36.10;;;;;;;7.01;100.00;98271.52;213413;1299;140476;-88
2024/02/11 03:15:48;;;;;;;78.60;36.40;;;;;;;7.01;100.00;98274.96;213910;1289;138834;-88
2024/02/11 03:20:48;;;;;;;87.20;36.50;;;;;;;7.02;100.00;98278.23;213932;1290;139561;-88
2024/02/11 03:25:50;;;;;;;92.30;38.10;;;;;;;7.03;100.00;98272.85;213921;1286;138546;-88
2024/02/11 03:30:51;;;;;;;80.90;35.30;;;;;;;7.05;100.00;98279.46;213439;1289;139696;-88
2024/02/11 03:35:52;;;;;;;91.80;38.90;;;;;;;7.07;100.00;98278.66;214118;1287;98003;-88
2024/02/11 03:40:56;;;;;;;87.30;37.00;;;;;;;7.07;100.00;98278.89;214764;1288;140252;-88
2024/02/11 03:45:57;;;;;;;88.00;38.20;;;;;;;7.08;100.00;98275.91;213791;1287;139374;-87
2024/02/11 03:51:00;;;;;;;91.80;38.00;;;;;;;7.09;100.00;98274.57;213364;1285;140910;-87
2024/02/11 03:56:05;;;;;;;84.90;36.70;;;;;;;7.10;100.00;98276.36;213714;1290;138739;-87
2024/02/11 04:01:06;;;;;;;87.00;37.50;;;;;;;7.11;100.00;98275.42;213234;1286;139861;-89
2024/02/11 04:06:06;;;;;;;94.40;39.00;;;;;;;7.12;100.00;98274.00;213933;1290;97526;-87
2024/02/11 04:11:09;;;;;;;93.90;35.60;;;;;;;7.13;100.00;98272.80;213124;1290;139248;-87
2024/02/11 04:16:15;;;;;;;86.50;36.80;;;;;;;7.15;100.00;98269.11;213803;1286;138466;-87
2024/02/11 04:21:20;;;;;;;86.00;37.00;;;;;;;7.18;100.00;98263.62;213021;1292;139461;-87
2024/02/11 04:26:20;;;;;;;84.70;36.40;;;;;;;7.19;100.00;98263.77;213495;1287;138820;-87
2024/02/11 04:31:21;;;;;;;94.50;38.70;;;;;;;7.22;100.00;98264.60;213121;1292;139541;-86
2024/02/11 04:36:23;;;;;;;96.70;41.00;;;;;;;7.23;100.00;98259.66;213835;1287;96742;-87
2024/02/11 04:41:23;;;;;;;95.00;40.20;;;;;;;7.24;100.00;98255.12;213448;1288;139573;-89
2024/02/11 04:46:26;;;;;;;94.80;39.10;;;;;;;7.25;100.00;98254.17;213997;1289;139149;-89
2024/02/11 04:51:28;;;;;;;92.40;40.80;;;;;;;7.27;100.00;98251.80;213089;1286;140141;-87
2024/02/11 04:56:29;;;;;;;90.00;38.60;;;;;;;7.28;100.00;98248.05;213742;1290;138528;-87
2024/02/11 05:01:31;;;;;;;92.00;40.00;;;;;;;7.29;100.00;98245.84;213296;1289;142321;-89
2024/02/11 05:06:32;;;;;;;84.90;39.60;;;;;;;7.30;100.00;98237.23;213775;1287;96725;-87
2024/02/11 05:11:32;;;;;;;89.30;37.70;;;;;;;7.32;100.00;98233.77;213236;1290;139822;-86
2024/02/11 05:16:34;;;;;;;88.90;40.90;;;;;;;7.33;100.00;98232.73;213759;1286;138511;-88
2024/02/11 05:21:34;;;;;;;84.10;36.60;;;;;;;7.34;100.00;98224.29;213344;1285;140008;-87
2024/02/11 05:26:36;;;;;;;83.00;37.90;;;;;;;7.36;100.00;98225.45;213753;1286;138524;-87
2024/02/11 05:31:36;;;;;;;89.90;39.00;;;;;;;7.38;100.00;98226.36;213237;1288;139739;-87
2024/02/11 05:36:40;;;;;;;89.10;37.70;;;;;;;7.38;100.00;98222.67;213618;1287;139034;-87
2024/02/11 05:41:42;;;;;;;84.80;39.20;;;;;;;7.40;100.00;98225.31;213532;1286;140630;-87
2024/02/11 05:46:44;;;;;;;83.60;39.00;;;;;;;7.41;100.00;98220.14;214289;1285;138645;-86
2024/02/11 05:51:47;;;;;;;80.00;38.00;;;;;;;7.43;100.00;98222.39;213319;1285;139604;-88
2024/02/11 05:56:51;;;;;;;86.70;40.20;;;;;;;7.44;100.00;98217.37;213784;1290;138742;-88
2024/02/11 06:01:51;;;;;;;80.80;36.40;;;;;;;7.45;100.00;98219.63;213272;1290;139928;-88
2024/02/11 06:06:52;;;;;;;86.50;38.60;;;;;;;7.47;100.00;98221.86;213697;1287;138941;-88
2024/02/11 06:11:53;;;;;;;76.10;37.30;;;;;;;7.50;100.00;98223.31;213230;1287;140452;-86
2024/02/11 06:16:54;;;;;;;88.70;40.20;;;;;;;7.52;100.00;98224.47;213931;1289;139143;-87
2024/02/11 06:21:55;;;;;;;89.40;39.00;;;;;;;7.52;100.00;98227.13;213426;1285;140368;-87
2024/02/11 06:26:56;;;;;;;88.50;38.00;;;;;;;7.52;100.00;98226.42;213931;1287;138654;-88
2024/02/11 06:31:59;;;;;;;89.10;42.80;;;;;;;7.53;100.00;98231.48;213323;1287;139372;-87
2024/02/11 06:37:00;;;;;;;88.80;41.30;;;;;;;7.56;100.00;98236.54;213654;1290;138926;-86
2024/02/11 06:42:05;;;;;;;113.60;50.50;;;;;;;7.58;100.00;98233.70;213620;1285;139763;-89
2024/02/11 06:47:09;;;;;;;89.20;43.70;;;;;;;7.61;100.00;98238.50;214505;1288;138661;-88
2024/02/11 06:52:10;;;;;;;85.30;38.20;;;;;;;7.66;100.00;98241.11;213773;1286;139875;-90
2024/02/11 06:57:11;;;;;;;84.20;38.70;;;;;;;7.70;100.00;98242.54;213985;1285;138704;-89
2024/02/11 07:02:11;;;;;;;86.00;36.90;;;;;;;7.73;100.00;98245.63;213316;1287;139627;-89
2024/02/11 07:07:12;;;;;;;117.10;48.10;;;;;;;7.76;100.00;98244.97;213675;1289;139119;-89
2024/02/11 07:12:16;;;;;;;88.10;40.90;;;;;;;7.77;100.00;98247.52;213393;1293;139886;-88
2024/02/11 07:17:19;;;;;;;82.50;38.00;;;;;;;7.80;100.00;98254.86;213844;1286;138680;-87
2024/02/11 07:22:20;;;;;;;91.10;39.60;;;;;;;7.84;100.00;98261.92;213218;1290;139537;-90
2024/02/11 07:27:20;;;;;;;87.00;38.10;;;;;;;7.86;100.00;98262.13;213693;1287;138519;-88
2024/02/11 07:32:21;;;;;;;86.70;37.30;;;;;;;7.89;100.00;98264.76;213389;1288;140193;-88
2024/02/11 07:37:22;;;;;;;79.00;36.40;;;;;;;7.91;100.00;98258.46;213804;1288;138626;-88
2024/02/11 07:42:22;;;;;;;80.30;35.50;;;;;;;7.92;100.00;98253.20;213561;1289;139866;-89
2024/02/11 07:47:23;;;;;;;101.90;51.80;;;;;;;7.95;100.00;98256.69;213850;1285;138615;-89
2024/02/11 07:52:23;;;;;;;80.90;37.30;;;;;;;7.98;100.00;98256.33;214013;1288;139998;-91
2024/02/11 07:57:26;;;;;;;88.80;38.60;;;;;;;8.02;100.00;98257.61;213827;1289;138493;-87
2024/02/11 08:02:26;;;;;;;65.60;31.90;;;;;;;8.05;100.00;98254.04;213334;1285;140427;-85
2024/02/11 08:07:27;;;;;;;84.50;41.90;;;;;;;8.11;100.00;98266.48;213954;1284;138457;-87
2024/02/11 08:12:27;;;;;;;71.60;36.00;;;;;;;8.14;100.00;98257.91;213540;1289;139799;-85
2024/02/11 08:17:28;;;;;;;81.50;38.20;;;;;;;8.17;100.00;98263.51;213942;1285;138712;-88
2024/02/11 08:22:28;;;;;;;74.70;37.20;;;;;;;8.22;100.00;98265.82;213294;1285;140625;-88
2024/02/11 08:27:32;;;;;;;82.20;39.00;;;;;;;8.27;100.00;98269.80;213667;1289;207875;-87
2024/02/11 08:32:35;;;;;;;83.50;38.70;;;;;;;8.31;100.00;98269.13;213418;1285;139589;-88
2024/02/11 08:37:36;;;;;;;87.70;41.10;;;;;;;8.34;100.00;98263.98;213910;1285;138501;-90
2024/02/11 08:42:36;;;;;;;86.20;38.90;;;;;;;8.39;100.00;98260.78;213415;1285;140082;-87
2024/02/11 08:47:37;;;;;;;78.80;37.60;;;;;;;8.44;100.00;98262.51;214066;1289;97520;-88
2024/02/11 08:52:38;;;;;;;76.30;37.30;;;;;;;8.49;100.00;98271.45;214363;1285;140338;-88
2024/02/11 08:57:39;;;;;;;81.00;37.80;;;;;;;8.53;100.00;98264.34;213974;1289;138628;-86
2024/02/11 09:02:39;;;;;;;97.50;45.90;;;;;;;8.58;100.00;98270.45;213401;1285;139845;-88
2024/02/11 09:07:42;;;;;;;83.20;39.10;;;;;;;8.62;100.00;98263.26;213948;1286;138857;-90
2024/02/11 09:12:43;;;;;;;82.00;38.50;;;;;;;8.66;100.00;98266.95;213281;1285;139638;-89
2024/02/11 09:17:43;;;;;;;77.20;39.80;;;;;;;8.71;100.00;98267.65;214274;1285;108075;-89
2024/02/11 09:22:44;;;;;;;87.70;41.70;;;;;;;8.77;100.00;98263.16;213522;1286;139713;-87
2024/02/11 09:27:45;;;;;;;80.20;41.60;;;;;;;8.84;100.00;98254.50;213853;1285;138584;-87
2024/02/11 09:32:48;;;;;;;70.30;35.70;;;;;;;8.90;100.00;98254.31;213328;1290;140071;-86
2024/02/11 09:37:49;;;;;;;74.90;38.30;;;;;;;8.93;100.00;98253.40;213661;1292;138627;-89
2024/02/11 09:42:50;;;;;;;85.10;43.30;;;;;;;8.96;100.00;98257.92;213426;1285;139491;-89
2024/02/11 09:47:52;;;;;;;69.30;36.20;;;;;;;8.95;100.00;98259.15;214155;1285;97620;-87
2024/02/11 09:52:52;;;;;;;71.70;37.20;;;;;;;8.98;100.00;98254.27;213607;1289;139641;-86
2024/02/11 09:57:53;;;;;;;71.60;38.60;;;;;;;9.02;100.00;98254.81;214441;1289;138840;-88
2024/02/11 10:02:57;;;;;;;70.00;35.20;;;;;;;9.07;100.00;98253.23;213521;1285;139724;-85
2024/02/11 10:07:59;;;;;;;69.10;35.20;;;;;;;9.11;100.00;98250.96;214009;1285;138702;-89
2024/02/11 10:13:03;;;;;;;78.10;39.10;;;;;;;9.16;100.00;98250.81;213405;1285;139982;-89
2024/02/11 10:18:06;;;;;;;73.20;38.20;;;;;;;9.20;100.00;98250.73;214226;1288;105518;-90
2024/02/11 10:23:09;;;;;;;72.00;37.70;;;;;;;9.18;100.00;98246.37;213312;1288;140649;-89
2024/02/11 10:28:10;;;;;;;65.40;34.40;;;;;;;9.23;100.00;98243.15;213838;1289;138475;-88
2024/02/11 10:33:11;;;;;;;68.50;43.20;;;;;;;9.26;100.00;98241.36;213384;1289;140016;-88
2024/02/11 10:38:11;;;;;;;66.80;33.80;;;;;;;9.27;100.00;98240.02;213907;1285;138995;-87
2024/02/11 10:43:15;;;;;;;55.60;30.00;;;;;;;9.30;100.00;98231.31;213400;1285;139431;-88
2024/02/11 10:48:18;;;;;;;66.40;35.20;;;;;;;9.32;100.00;98232.08;214096;1289;109450;-88
2024/02/11 10:53:22;;;;;;;64.20;33.70;;;;;;;9.36;100.00;98226.74;213483;1285;139806;-88
2024/02/11 10:58:29;;;;;;;62.50;32.00;;;;;;;9.40;100.00;98222.82;214236;1290;138575;-88
2024/02/11 11:03:29;;;;;;;;;;;;;;;9.42;100.00;98217.36;213758;1285;139443;-86
2024/02/11 11:08:30;;;;;;;55.10;32.80;;;;;;;9.46;100.00;98211.48;214157;1286;124635;-88
2024/02/11 11:13:34;;;;;;;72.50;42.50;;;;;;;9.48;100.00;98204.14;213392;1285;139320;-86
2024/02/11 11:18:38;;;;;;;67.10;34.80;;;;;;;9.48;100.00;98195.37;213920;1285;138461;-88
2024/02/11 11:23:41;;;;;;;55.20;31.50;;;;;;;9.50;100.00;98192.58;213734;1285;139301;-87
2024/02/11 11:28:41;;;;;;;51.70;30.00;;;;;;;9.52;100.00;98186.73;214022;1286;138371;-87
2024/02/11 11:33:41;;;;;;;58.80;30.50;;;;;;;9.50;100.00;98184.02;213519;1285;139984;-86
2024/02/11 11:38:42;;;;;;;57.80;30.80;;;;;;;9.48;100.00;98176.16;214100;1285;138501;-88
2024/02/11 11:43:42;;;;;;;61.80;33.90;;;;;;;9.48;100.00;98173.33;213570;1285;139966;-88
2024/02/11 11:48:43;;;;;;;52.80;31.00;;;;;;;9.46;100.00;98171.57;214056;1285;139020;-88
2024/02/11 11:53:44;;;;;;;60.50;32.20;;;;;;;9.40;100.00;98169.34;213628;1285;139633;-86
2024/02/11 11:58:48;;;;;;;60.50;30.80;;;;;;;9.33;100.00;98166.17;214768;1289;138560;-88
2024/02/11 12:03:49;;;;;;;53.90;30.60;;;;;;;9.31;100.00;98168.66;213872;1285;139923;-89
2024/02/11 12:08:49;;;;;;;55.70;30.80;;;;;;;9.29;100.00;98161.55;214065;1289;138781;-85
2024/02/11 12:13:50;;;;;;;53.00;29.60;;;;;;;9.28;100.00;98161.42;213714;1285;140431;-85
2024/02/11 12:18:51;;;;;;;65.20;35.10;;;;;;;9.27;100.00;98158.14;213923;1289;138628;-86
2024/02/11 12:23:53;;;;;;;61.40;31.30;;;;;;;9.28;100.00;98155.77;213425;1287;140431;-85
2024/02/11 12:28:54;;;;;;;165.00;76.30;;;;;;;9.26;100.00;98148.85;214005;1285;138495;-86
2024/02/11 12:33:55;;;;;;;65.70;35.80;;;;;;;9.25;100.00;98146.44;213359;1289;139716;-86
2024/02/11 12:38:56;;;;;;;63.90;34.90;;;;;;;9.25;100.00;98145.87;213787;1285;138927;-88
2024/02/11 12:43:57;;;;;;;60.90;31.00;;;;;;;9.24;100.00;98144.04;213644;1284;139017;-87
2024/02/11 12:48:58;;;;;;;143.30;68.40;;;;;;;9.21;100.00;98141.33;214070;1285;138681;-87
2024/02/11 12:53:59;;;;;;;131.00;50.30;;;;;;;9.21;100.00;98137.73;213570;1290;139761;-87
2024/02/11 12:58:59;;;;;;;100.50;40.90;;;;;;;9.17;100.00;98136.33;213998;1285;141419;-87
2024/02/11 13:04:00;;;;;;;93.20;41.10;;;;;;;9.10;100.00;98124.23;214714;1287;139344;-87
2024/02/11 13:09:01;;;;;;;89.80;42.00;;;;;;;9.10;100.00;98124.23;213778;1287;138525;-89
2024/02/11 13:14:01;;;;;;;59.80;32.80;;;;;;;9.06;100.00;98122.74;213257;1290;139981;-86
2024/02/11 13:19:02;;;;;;;58.30;32.40;;;;;;;9.00;100.00;98117.77;214092;1289;138768;-87
2024/02/11 13:24:03;;;;;;;65.60;32.90;;;;;;;8.99;100.00;98120.38;213707;1289;139411;-86
2024/02/11 13:29:03;;;;;;;67.50;32.90;;;;;;;8.93;100.00;98121.98;214097;1285;138502;-87
2024/02/11 13:34:04;;;;;;;69.40;35.20;;;;;;;8.90;100.00;98118.36;213581;1289;139981;-86
2024/02/11 13:39:05;;;;;;;55.10;31.10;;;;;;;8.88;100.00;98120.05;214146;1285;138493;-87
2024/02/11 13:44:06;;;;;;;50.00;28.40;;;;;;;8.85;100.00;98117.28;213867;1285;139893;-86
2024/02/11 13:49:07;;;;;;;49.40;28.60;;;;;;;8.81;100.00;98117.45;214098;1285;139195;-88
2024/02/11 13:54:07;;;;;;;50.70;30.80;;;;;;;8.77;100.00;98116.17;214341;1285;139663;-86
2024/02/11 13:59:07;;;;;;;48.80;28.60;;;;;;;8.75;100.00;98112.69;214580;1285;138487;-84
2024/02/11 14:04:08;;;;;;;51.80;29.40;;;;;;;8.72;100.00;98109.77;214759;1288;139473;-87
2024/02/11 14:09:11;;;;;;;60.10;29.90;;;;;;;8.68;100.00;98108.59;214560;1289;139315;-90
2024/02/11 14:14:13;;;;;;;47.00;25.90;;;;;;;8.68;100.00;98110.08;213788;1289;140161;-84
2024/02/11 14:19:14;;;;;;;50.00;30.00;;;;;;;8.66;100.00;98108.02;214071;1285;139061;-84
2024/02/11 14:24:14;;;;;;;46.10;27.50;;;;;;;8.62;100.00;98102.59;213663;1288;139461;-86
2024/02/11 14:29:15;;;;;;;50.70;31.10;;;;;;;8.58;100.00;98105.23;214264;1289;138603;-86
2024/02/11 14:34:16;;;;;;;54.10;31.50;;;;;;;8.55;100.00;98100.70;213492;1285;139726;-86
2024/02/11 14:39:16;;;;;;;51.80;29.50;;;;;;;8.54;100.00;98102.52;214081;1285;138528;-84
2024/02/11 14:44:20;;;;;;;56.90;31.00;;;;;;;8.52;100.00;98106.46;213483;1285;139799;-84
2024/02/11 14:49:21;;;;;;;54.30;32.20;;;;;;;8.48;100.00;98101.44;214022;1285;138637;-89
2024/02/11 14:54:24;;;;;;;48.40;29.10;;;;;;;8.45;100.00;98101.57;213796;1286;139735;-85
2024/02/11 14:59:28;;;;;;;51.30;28.30;;;;;;;8.43;100.00;98102.86;214197;1285;138334;-86
2024/02/11 15:04:29;;;;;;;59.40;33.70;;;;;;;8.40;100.00;98107.52;213439;1286;139417;-85
2024/02/11 15:09:29;;;;;;;58.50;30.30;;;;;;;8.38;100.00;98106.31;214540;1289;138686;-86
2024/02/11 15:14:30;;;;;;;54.70;30.60;;;;;;;8.38;100.00;98104.06;213471;1289;139859;-85
2024/02/11 15:19:34;;;;;;;56.90;32.90;;;;;;;8.36;100.00;98102.20;214069;1284;138620;-86
2024/02/11 15:24:38;;;;;;;66.10;36.00;;;;;;;8.34;100.00;98106.15;213646;1290;139371;-84
2024/02/11 15:29:40;;;;;;;61.40;33.10;;;;;;;8.34;100.00;98104.73;214159;1285;108402;-90
2024/02/11 15:34:40;;;;;;;86.00;39.40;;;;;;;8.35;100.00;98109.27;213208;1290;140332;-84
2024/02/11 15:39:41;;;;;;;62.40;33.40;;;;;;;8.35;100.00;98108.64;213709;1286;138953;-84
2024/02/11 15:44:43;;;;;;;56.20;32.90;;;;;;;8.33;100.00;98108.84;213277;1290;139468;-85
2024/02/11 15:49:43;;;;;;;56.20;30.60;;;;;;;8.31;100.00;98105.10;213629;1287;138708;-84
2024/02/11 15:54:45;;;;;;;52.10;30.30;;;;;;;8.29;100.00;98107.19;213059;1287;139500;-83
2024/02/11 15:59:46;;;;;;;59.40;34.60;;;;;;;8.27;100.00;98105.64;213602;1287;107740;-84
2024/02/11 16:04:46;;;;;;;60.50;34.10;;;;;;;8.26;100.00;98108.34;213205;1291;139516;-85
2024/02/11 16:09:47;;;;;;;55.80;32.40;;;;;;;8.29;100.00;98109.30;214478;1289;138726;-84
2024/02/11 16:14:47;;;;;;;58.90;33.60;;;;;;;8.27;100.00;98108.54;212944;1289;139761;-84
2024/02/11 16:19:49;;;;;;;53.20;30.50;;;;;;;8.28;100.00;98112.45;213691;1289;138667;-83
2024/02/11 16:24:49;;;;;;;50.40;30.90;;;;;;;8.27;100.00;98110.97;213333;1288;139875;-84
2024/02/11 16:29:52;;;;;;;63.60;33.70;;;;;;;8.27;100.00;98115.44;213912;1285;138086;-85
2024/02/11 16:34:54;;;;;;;59.50;33.20;;;;;;;8.27;100.00;98111.52;213626;1285;139418;-85
2024/02/11 16:39:55;;;;;;;64.30;36.20;;;;;;;8.28;100.00;98114.64;213774;1286;138452;-85
2024/02/11 16:44:56;;;;;;;74.50;43.80;;;;;;;8.29;100.00;98112.90;213611;1290;152914;-83
2024/02/11 16:49:57;;;;;;;59.00;32.20;;;;;;;8.29;100.00;98112.66;213685;1288;139319;-85
2024/02/11 16:54:58;;;;;;;59.10;34.30;;;;;;;8.29;100.00;98106.79;213989;1285;139013;-88
2024/02/11 16:59:58;;;;;;;66.40;38.00;;;;;;;8.30;100.00;98106.14;213565;1286;139732;-84
2024/02/11 17:05:00;;;;;;;68.10;36.40;;;;;;;8.31;100.00;98105.02;213617;1287;138850;-85
2024/02/11 17:10:05;;;;;;;78.30;42.40;;;;;;;8.32;100.00;98104.23;213397;1291;140465;-86
2024/02/11 17:15:08;;;;;;;67.90;35.80;;;;;;;8.33;100.00;98107.41;214083;1285;139201;-85
2024/02/11 17:20:09;;;;;;;65.90;35.10;;;;;;;8.34;100.00;98107.09;213347;1289;140541;-84
2024/02/11 17:25:10;;;;;;;64.50;35.40;;;;;;;8.35;100.00;98113.95;213768;1291;138986;-84
2024/02/11 17:30:11;;;;;;;68.60;39.60;;;;;;;8.37;100.00;98113.46;213250;1290;139745;-86
2024/02/11 17:35:12;;;;;;;59.70;33.80;;;;;;;8.38;100.00;98108.60;213827;1287;138875;-85
2024/02/11 17:40:13;;;;;;;80.40;41.70;;;;;;;8.38;100.00;98108.73;213291;1287;139858;-84
2024/02/11 17:45:14;;;;;;;59.60;35.90;;;;;;;8.42;100.00;98112.51;213908;1290;139697;-84
2024/02/11 17:50:14;;;;;;;65.20;37.50;;;;;;;8.46;100.00;98112.45;213588;1290;139744;-84
2024/02/11 17:55:16;;;;;;;56.00;32.80;;;;;;;8.47;100.00;98109.53;214064;1285;139124;-85
2024/02/11 18:00:19;;;;;;;62.80;37.20;;;;;;;8.49;100.00;98110.74;213779;1286;139891;-84
2024/02/11 18:05:21;;;;;;;125.40;56.50;;;;;;;8.51;100.00;98110.77;214092;1289;138483;-85
2024/02/11 18:10:21;;;;;;;90.80;42.40;;;;;;;8.55;100.00;98105.70;213511;1285;140099;-85
2024/02/11 18:15:22;;;;;;;73.30;40.00;;;;;;;8.59;100.00;98111.66;214450;1291;139124;-84
2024/02/11 18:20:23;;;;;;;89.20;47.50;;;;;;;8.62;100.00;98114.96;213500;1285;139751;-85
2024/02/11 18:25:24;;;;;;;74.10;38.40;;;;;;;8.65;100.00;98111.55;214033;1289;139029;-84
2024/02/11 18:30:24;;;;;;;65.80;37.90;;;;;;;8.66;100.00;98110.20;213544;1289;139533;-84
2024/02/11 18:35:25;;;;;;;74.70;45.70;;;;;;;8.68;100.00;98114.69;213997;1290;139118;-84
2024/02/11 18:40:25;;;;;;;117.40;57.70;;;;;;;8.71;100.00;98112.38;213620;1290;140073;-84
2024/02/11 18:45:26;;;;;;;97.50;48.80;;;;;;;8.73;100.00;98113.67;214030;1288;139333;-83
2024/02/11 18:50:26;;;;;;;79.00;44.80;;;;;;;8.76;100.00;98112.83;213433;1287;140619;-84
2024/02/11 18:55:27;;;;;;;73.20;41.60;;;;;;;8.78;100.00;98114.27;213841;1287;138593;-85
2024/02/11 19:00:27;;;;;;;90.30;48.40;;;;;;;8.80;100.00;98115.81;213346;1290;140344;-85
2024/02/11 19:05:28;;;;;;;74.30;43.70;;;;;;;8.82;100.00;98116.54;213755;1292;138402;-85
2024/02/11 19:10:29;;;;;;;86.10;46.80;;;;;;;8.85;100.00;98115.64;213645;1289;139487;-85
2024/02/11 19:15:30;;;;;;;89.20;54.20;;;;;;;8.87;100.00;98115.91;213983;1289;138965;-84
2024/02/11 19:20:32;;;;;;;79.90;45.60;;;;;;;8.89;100.00;98113.14;213973;1286;139805;-84
2024/02/11 19:25:34;;;;;;;82.80;50.00;;;;;;;8.91;100.00;98116.99;214087;1292;139281;-85
2024/02/11 19:30:35;;;;;;;82.10;44.30;;;;;;;8.94;100.00;98115.93;213590;1287;140002;-84
2024/02/11 19:35:36;;;;;;;74.10;43.30;;;;;;;8.95;100.00;98113.39;214100;1286;97019;-84
2024/02/11 19:40:36;;;;;;;92.90;46.50;;;;;;;8.96;100.00;98111.20;213575;1289;140488;-84
2024/02/11 19:45:37;;;;;;;131.10;60.60;;;;;;;8.98;100.00;98112.01;213935;1286;138989;-84
2024/02/11 19:50:38;;;;;;;85.00;46.80;;;;;;;8.99;100.00;98109.41;213500;1289;139653;-83
2024/02/11 19:55:39;;;;;;;66.20;38.30;;;;;;;9.01;100.00;98106.00;213978;1285;139549;-84
2024/02/11 20:00:40;;;;;;;77.80;41.60;;;;;;;9.01;100.00;98108.83;213569;1288;139499;-83
2024/02/11 20:05:42;;;;;;;83.90;42.90;;;;;;;9.02;100.00;98110.06;214145;1289;96711;-84
2024/02/11 20:10:43;;;;;;;99.40;45.40;;;;;;;9.03;100.00;98110.81;213391;1289;139630;-84
2024/02/11 20:15:44;;;;;;;162.80;61.60;;;;;;;9.04;100.00;98112.20;214243;1289;138809;-84
2024/02/11 20:20:51;;;;;;;141.00;55.50;;;;;;;9.05;100.00;98114.46;213765;1291;139784;-84
2024/02/11 20:25:54;;;;;;;82.30;41.80;;;;;;;9.06;100.00;98117.09;213742;1291;193575;-84
2024/02/11 20:30:55;;;;;;;67.10;37.30;;;;;;;9.08;100.00;98120.59;213466;1285;139671;-83
2024/02/11 20:35:55;;;;;;;66.70;36.80;;;;;;;9.08;100.00;98118.86;214047;1289;96625;-84
2024/02/11 20:40:58;;;;;;;55.60;34.10;;;;;;;9.10;100.00;98123.45;213445;1289;140134;-84
2024/02/11 20:45:59;;;;;;;75.90;42.20;;;;;;;9.12;100.00;98124.20;213898;1290;139025;-84
2024/02/11 20:51:02;;;;;;;70.50;42.50;;;;;;;9.12;100.00;98120.27;213502;1286;139504;-85
2024/02/11 20:56:02;;;;;;;64.70;44.10;;;;;;;9.13;100.00;98121.83;214105;1285;139254;-84
2024/02/11 21:01:03;;;;;;;65.10;39.50;;;;;;;9.11;100.00;98119.58;213369;1293;139891;-84
2024/02/11 21:06:03;;;;;;;55.40;34.80;;;;;;;9.12;100.00;98123.17;213765;1290;97854;-84
2024/02/11 21:11:04;;;;;;;60.40;34.70;;;;;;;9.14;100.00;98120.45;213230;1289;139497;-84
2024/02/11 21:16:07;;;;;;;67.80;37.70;;;;;;;9.14;100.00;98126.04;213788;1290;138806;-83
2024/02/11 21:21:10;;;;;;;52.20;33.10;;;;;;;9.13;100.00;98127.14;213793;1285;139143;-83
2024/02/11 21:26:15;;;;;;;59.40;34.10;;;;;;;9.13;100.00;98125.81;214109;1293;139606;-84
2024/02/11 21:31:17;;;;;;;67.60;37.60;;;;;;;9.13;100.00;98129.48;213759;1292;139479;-84
2024/02/11 21:36:18;;;;;;;60.60;34.70;;;;;;;9.13;100.00;98129.50;213970;1291;96693;-85
2024/02/11 21:41:18;;;;;;;59.70;35.00;;;;;;;9.14;100.00;98132.86;213380;1288;140014;-84
2024/02/11 21:46:20;;;;;;;57.70;35.70;;;;;;;9.14;100.00;98133.08;213792;1286;137375;-83
2024/02/11 21:51:20;;;;;;;62.40;35.80;;;;;;;9.14;100.00;98128.84;213352;1289;140115;-84
2024/02/11 21:56:21;;;;;;;62.60;40.20;;;;;;;9.17;100.00;98133.42;213721;1289;139231;-84
2024/02/11 22:01:24;;;;;;;60.20;38.60;;;;;;;9.17;100.00;98133.50;213470;1287;139848;-84
2024/02/11 22:06:25;;;;;;;59.80;36.90;;;;;;;9.17;100.00;98131.91;213825;1288;97920;-85
2024/02/11 22:11:25;;;;;;;62.60;35.20;;;;;;;9.18;100.00;98138.17;213332;1286;139702;-84
2024/02/11 22:16:28;;;;;;;59.00;37.40;;;;;;;9.20;100.00;98141.59;213639;1290;138428;-84
2024/02/11 22:21:29;;;;;;;60.20;35.00;;;;;;;9.20;100.00;98144.10;213154;1292;139792;-85
2024/02/11 22:26:30;;;;;;;63.30;38.30;;;;;;;9.22;100.00;98144.14;214745;1290;138503;-85
2024/02/11 22:31:30;;;;;;;58.20;35.60;;;;;;;9.23;100.00;98143.42;213298;1287;139694;-84